APL Columbus — 9V9920 — position and weather

sailwx.info

Track history (hours):
 
Tides and Currents Weather Stations Pressure Air Temp Water Temp Dewpoint Dewpoint Depression Visibility Wind Speed Wind Dir Waves Ship Positions

APL Columbus

Last reported at 2017-Nov-15 23:20 UTC. Time now 2017-Nov-22 09:16 UTC.
Position N 21°27' E 114°02'.

Length 328 m; draft 12.9 m.

Type: Ship (hazmat cat A). MMSI: 566953000.

Date/timePositionNaut miles runAvg speedWind from/ knotsBaromVisibWave heightAir tempDewpointWater temp
2017-Nov-15 23:20N 21°27' E 114°02'3418.3
2017-Nov-15 21:27N 21°57' E 114°20'816.6
2017-Nov-15 20:59N 22°05' E 114°20'715.2
2017-Nov-15 20:30N 22°08' E 114°13'812.0
2017-Nov-15 19:49N 22°14' E 114°08'512.5
2017-Nov-15 19:26N 22°19' E 114°06'2 1.8
2017-Nov-15 18:12N 22°20' E 114°08'0 0.0
2017-Nov-15 11:18N 22°20' E 114°08'0 0.0
2017-Nov-15 05:18N 22°20' E 114°08'0 0.0
2017-Nov-14 23:10N 22°20' E 114°08'0 1.3
2017-Nov-14 22:52N 22°20' E 114°08'3 6.5
2017-Nov-14 22:25N 22°17' E 114°06'614.2
2017-Nov-14 22:00N 22°12' E 114°11'611.0
2017-Nov-14 21:29N 22°08' E 114°14'611.8
2017-Nov-14 21:00N 22°07' E 114°20'714.8
2017-Nov-14 20:30N 22°07' E 114°28'815.0
2017-Nov-14 20:00N 22°07' E 114°37'714.8
2017-Nov-14 19:30N 22°07' E 114°44'714.8
2017-Nov-14 19:00N 22°07' E 114°52'917.1
2017-Nov-14 18:30N 22°08' E 115°02'1020.5
2017-Nov-14 18:00N 22°09' E 115°13'20319.4
2017-Nov-14 07:34N 23°47' E 118°26'120.0
2017-Nov-14 07:30N 23°48' E 118°27'  
2017-Nov-09 00:00N 46°24' E 162°24'   160 / 201016.0 5.4 12.0 8.0
Track history (hours):
 
Tides and Currents Weather Stations Pressure Air Temp Water Temp Dewpoint Dewpoint Depression Visibility Wind Speed Wind Dir Waves Ship Positions

APL Columbus

Last reported at 2017-Nov-15 23:20 UTC. Time now 2017-Nov-22 09:16 UTC.
Position N 21°27' E 114°02'.

Length 328 m; draft 12.9 m.

Type: Ship (hazmat cat A). MMSI: 566953000.

Date/timePositionNaut miles runAvg speedWind from/ knotsBaromVisibWave heightAir tempDewpointWater temp
2017-Nov-15 23:20N 21°27' E 114°02'3418.3
2017-Nov-15 21:27N 21°57' E 114°20'816.6
2017-Nov-15 20:59N 22°05' E 114°20'715.2
2017-Nov-15 20:30N 22°08' E 114°13'812.0
2017-Nov-15 19:49N 22°14' E 114°08'512.5
2017-Nov-15 19:26N 22°19' E 114°06'2 1.8
2017-Nov-15 18:12N 22°20' E 114°08'0 0.0
2017-Nov-15 11:18N 22°20' E 114°08'0 0.0
2017-Nov-15 05:18N 22°20' E 114°08'0 0.0
2017-Nov-14 23:10N 22°20' E 114°08'0 1.3
2017-Nov-14 22:52N 22°20' E 114°08'3 6.5
2017-Nov-14 22:25N 22°17' E 114°06'614.2
2017-Nov-14 22:00N 22°12' E 114°11'611.0
2017-Nov-14 21:29N 22°08' E 114°14'611.8
2017-Nov-14 21:00N 22°07' E 114°20'714.8
2017-Nov-14 20:30N 22°07' E 114°28'815.0
2017-Nov-14 20:00N 22°07' E 114°37'714.8
2017-Nov-14 19:30N 22°07' E 114°44'714.8
2017-Nov-14 19:00N 22°07' E 114°52'917.1
2017-Nov-14 18:30N 22°08' E 115°02'1020.5
2017-Nov-14 18:00N 22°09' E 115°13'20319.4
2017-Nov-14 07:34N 23°47' E 118°26'120.0
2017-Nov-14 07:30N 23°48' E 118°27'  
2017-Nov-09 00:00N 46°24' E 162°24'   160 / 201016.0 5.4 12.0 8.0

Dump ship's entire track history